Terminal Aerodrome Forecast
Issued by NWS

Home | Current Version | Previous Version | Text Only | Print | Product List | Glossary Off
Versions: 1 2 3 4 5 6 7 8 9 10 11 12 13 14 15 16 17 18 19 20 21 22 23 24 25 26 27 28 29 30 31 32 33 34 35 36 37 38
545 FTUS41 KBOX 170908 AAA TAFBAF TAF AMD KBAF 170908Z 1709/1806 00000KT P6SM BKN090 FM172000 VRB03KT 5SM -RA OVC060 FM172300 VRB03KT 3SM -FZRASNPL OVC025 FM180100 04004KT 2SM -SNRA OVC015 FM180300 04004KT 2SM -SNRA OVC008=

USA.gov is the U.S. government's official web portal to all federal, state and local government web resources and services.